sensor_id;sensor_type;location;lat;lon;timestamp;P1;durP1;ratioP1;P2;durP2;ratioP2
35699;SDS011;21818;51.078;12.108;2023-08-06T00:01:30;3.95;;;2.70;;
35699;SDS011;21818;51.078;12.108;2023-08-06T00:03:56;5.25;;;2.80;;
35699;SDS011;21818;51.078;12.108;2023-08-06T00:06:22;3.72;;;2.22;;
35699;SDS011;21818;51.078;12.108;2023-08-06T00:08:47;7.47;;;3.75;;
35699;SDS011;21818;51.078;12.108;2023-08-06T00:11:13;4.85;;;2.88;;
35699;SDS011;21818;51.078;12.108;2023-08-06T00:13:38;6.93;;;3.10;;
35699;SDS011;21818;51.078;12.108;2023-08-06T00:16:13;6.30;;;2.95;;
35699;SDS011;21818;51.078;12.108;2023-08-06T00:18:39;5.65;;;3.03;;
35699;SDS011;21818;51.078;12.108;2023-08-06T00:21:05;3.92;;;2.15;;
35699;SDS011;21818;51.078;12.108;2023-08-06T00:23:30;5.38;;;2.67;;
35699;SDS011;21818;51.078;12.108;2023-08-06T00:25:56;5.43;;;2.20;;
35699;SDS011;21818;51.078;12.108;2023-08-06T00:28:21;3.50;;;2.30;;
35699;SDS011;21818;51.078;12.108;2023-08-06T00:30:54;5.80;;;2.60;;
35699;SDS011;21818;51.078;12.108;2023-08-06T00:33:20;5.38;;;2.50;;
35699;SDS011;21818;51.078;12.108;2023-08-06T00:35:47;3.95;;;2.10;;
35699;SDS011;21818;51.078;12.108;2023-08-06T00:38:12;6.55;;;2.50;;
35699;SDS011;21818;51.078;12.108;2023-08-06T00:40:38;3.92;;;2.20;;
35699;SDS011;21818;51.078;12.108;2023-08-06T00:43:03;3.92;;;2.63;;
35699;SDS011;21818;51.078;12.108;2023-08-06T00:45:29;3.78;;;2.63;;
35699;SDS011;21818;51.078;12.108;2023-08-06T00:47:56;4.60;;;2.20;;
35699;SDS011;21818;51.078;12.108;2023-08-06T00:50:22;9.13;;;1.98;;
35699;SDS011;21818;51.078;12.108;2023-08-06T00:52:51;5.05;;;2.70;;
35699;SDS011;21818;51.078;12.108;2023-08-06T00:55:17;8.20;;;2.47;;
35699;SDS011;21818;51.078;12.108;2023-08-06T00:57:42;4.35;;;1.80;;
35699;SDS011;21818;51.078;12.108;2023-08-06T01:00:08;3.92;;;1.60;;
35699;SDS011;21818;51.078;12.108;2023-08-06T01:02:34;7.32;;;1.67;;
35699;SDS011;21818;51.078;12.108;2023-08-06T01:05:00;2.83;;;1.50;;
35699;SDS011;21818;51.078;12.108;2023-08-06T01:12:41;4.60;;;1.52;;
35699;SDS011;21818;51.078;12.108;2023-08-06T01:15:17;1.67;;;1.23;;
35699;SDS011;21818;51.078;12.108;2023-08-06T01:17:47;3.47;;;2.03;;
35699;SDS011;21818;51.078;12.108;2023-08-06T01:20:13;1.70;;;1.20;;
35699;SDS011;21818;51.078;12.108;2023-08-06T01:22:39;2.42;;;1.50;;
35699;SDS011;21818;51.078;12.108;2023-08-06T01:25:04;1.38;;;1.13;;
35699;SDS011;21818;51.078;12.108;2023-08-06T01:30:27;4.78;;;1.70;;
35699;SDS011;21818;51.078;12.108;2023-08-06T01:33:00;1.67;;;1.30;;
35699;SDS011;21818;51.078;12.108;2023-08-06T01:35:29;8.38;;;1.60;;
35699;SDS011;21818;51.078;12.108;2023-08-06T01:37:55;4.82;;;1.40;;
35699;SDS011;21818;51.078;12.108;2023-08-06T01:40:21;2.17;;;1.27;;
35699;SDS011;21818;51.078;12.108;2023-08-06T01:42:47;1.02;;;0.90;;
35699;SDS011;21818;51.078;12.108;2023-08-06T01:45:12;3.22;;;1.40;;
35699;SDS011;21818;51.078;12.108;2023-08-06T01:47:39;2.05;;;0.95;;
35699;SDS011;21818;51.078;12.108;2023-08-06T01:50:04;1.95;;;0.98;;
35699;SDS011;21818;51.078;12.108;2023-08-06T01:52:30;6.43;;;1.25;;
35699;SDS011;21818;51.078;12.108;2023-08-06T01:54:56;2.63;;;1.50;;
35699;SDS011;21818;51.078;12.108;2023-08-06T01:57:21;2.15;;;1.17;;
35699;SDS011;21818;51.078;12.108;2023-08-06T01:59:47;2.60;;;1.00;;
35699;SDS011;21818;51.078;12.108;2023-08-06T02:02:13;2.25;;;1.38;;
35699;SDS011;21818;51.078;12.108;2023-08-06T02:04:38;1.55;;;1.40;;
35699;SDS011;21818;51.078;12.108;2023-08-06T02:07:04;2.33;;;1.02;;
35699;SDS011;21818;51.078;12.108;2023-08-06T02:09:29;2.25;;;1.25;;
35699;SDS011;21818;51.078;12.108;2023-08-06T02:11:55;5.10;;;1.08;;
35699;SDS011;21818;51.078;12.108;2023-08-06T02:14:21;4.43;;;1.52;;
35699;SDS011;21818;51.078;12.108;2023-08-06T02:16:46;2.25;;;1.33;;
35699;SDS011;21818;51.078;12.108;2023-08-06T02:19:12;1.80;;;1.08;;
35699;SDS011;21818;51.078;12.108;2023-08-06T02:21:37;2.47;;;0.77;;
35699;SDS011;21818;51.078;12.108;2023-08-06T02:24:03;4.13;;;1.48;;
35699;SDS011;21818;51.078;12.108;2023-08-06T02:26:29;1.75;;;1.23;;
35699;SDS011;21818;51.078;12.108;2023-08-06T02:28:54;1.95;;;1.20;;
35699;SDS011;21818;51.078;12.108;2023-08-06T02:31:20;3.47;;;1.00;;
35699;SDS011;21818;51.078;12.108;2023-08-06T02:33:45;1.75;;;1.10;;
35699;SDS011;21818;51.078;12.108;2023-08-06T02:36:11;2.33;;;0.75;;
35699;SDS011;21818;51.078;12.108;2023-08-06T02:38:37;2.65;;;1.15;;
35699;SDS011;21818;51.078;12.108;2023-08-06T02:41:02;1.55;;;1.02;;
35699;SDS011;21818;51.078;12.108;2023-08-06T02:43:29;6.47;;;1.35;;
35699;SDS011;21818;51.078;12.108;2023-08-06T02:45:57;1.25;;;0.90;;
35699;SDS011;21818;51.078;12.108;2023-08-06T02:48:24;2.47;;;0.90;;
35699;SDS011;21818;51.078;12.108;2023-08-06T02:50:49;2.25;;;0.98;;
35699;SDS011;21818;51.078;12.108;2023-08-06T02:53:15;1.80;;;1.05;;
35699;SDS011;21818;51.078;12.108;2023-08-06T02:55:45;2.50;;;0.90;;
35699;SDS011;21818;51.078;12.108;2023-08-06T02:58:15;1.40;;;0.80;;
35699;SDS011;21818;51.078;12.108;2023-08-06T03:00:41;1.35;;;0.95;;
35699;SDS011;21818;51.078;12.108;2023-08-06T03:03:08;0.98;;;0.82;;
35699;SDS011;21818;51.078;12.108;2023-08-06T03:05:33;1.70;;;1.00;;
35699;SDS011;21818;51.078;12.108;2023-08-06T03:07:59;1.73;;;0.90;;
35699;SDS011;21818;51.078;12.108;2023-08-06T03:10:24;1.50;;;0.90;;
35699;SDS011;21818;51.078;12.108;2023-08-06T03:12:50;1.63;;;1.20;;
35699;SDS011;21818;51.078;12.108;2023-08-06T03:15:16;2.20;;;0.80;;
35699;SDS011;21818;51.078;12.108;2023-08-06T03:17:41;1.83;;;0.88;;
35699;SDS011;21818;51.078;12.108;2023-08-06T03:20:07;1.38;;;0.82;;
35699;SDS011;21818;51.078;12.108;2023-08-06T03:22:33;1.52;;;1.00;;
35699;SDS011;21818;51.078;12.108;2023-08-06T03:24:58;3.65;;;0.90;;
35699;SDS011;21818;51.078;12.108;2023-08-06T03:27:24;1.10;;;0.70;;
35699;SDS011;21818;51.078;12.108;2023-08-06T03:29:50;1.20;;;0.80;;
35699;SDS011;21818;51.078;12.108;2023-08-06T03:32:15;1.00;;;0.90;;
35699;SDS011;21818;51.078;12.108;2023-08-06T03:34:41;1.48;;;0.80;;
35699;SDS011;21818;51.078;12.108;2023-08-06T03:37:06;0.98;;;0.70;;
35699;SDS011;21818;51.078;12.108;2023-08-06T03:39:32;1.35;;;0.77;;
35699;SDS011;21818;51.078;12.108;2023-08-06T03:41:58;1.42;;;0.63;;
35699;SDS011;21818;51.078;12.108;2023-08-06T03:44:23;3.55;;;0.95;;
35699;SDS011;21818;51.078;12.108;2023-08-06T03:46:49;2.58;;;0.85;;
35699;SDS011;21818;51.078;12.108;2023-08-06T03:49:14;1.00;;;0.80;;
35699;SDS011;21818;51.078;12.108;2023-08-06T03:51:40;0.90;;;0.80;;
35699;SDS011;21818;51.078;12.108;2023-08-06T03:54:05;1.27;;;0.80;;
35699;SDS011;21818;51.078;12.108;2023-08-06T03:56:31;2.05;;;1.20;;
35699;SDS011;21818;51.078;12.108;2023-08-06T03:58:56;1.38;;;0.70;;
35699;SDS011;21818;51.078;12.108;2023-08-06T04:01:22;1.67;;;0.77;;
35699;SDS011;21818;51.078;12.108;2023-08-06T04:03:48;1.77;;;0.85;;
35699;SDS011;21818;51.078;12.108;2023-08-06T04:06:13;3.85;;;0.80;;
35699;SDS011;21818;51.078;12.108;2023-08-06T04:08:39;1.90;;;0.88;;
35699;SDS011;21818;51.078;12.108;2023-08-06T04:11:04;1.70;;;0.63;;
35699;SDS011;21818;51.078;12.108;2023-08-06T04:13:30;1.38;;;0.80;;
35699;SDS011;21818;51.078;12.108;2023-08-06T04:16:00;1.88;;;0.75;;
35699;SDS011;21818;51.078;12.108;2023-08-06T04:18:26;3.10;;;0.80;;
35699;SDS011;21818;51.078;12.108;2023-08-06T04:20:51;2.63;;;0.80;;
35699;SDS011;21818;51.078;12.108;2023-08-06T04:23:20;1.60;;;0.60;;
35699;SDS011;21818;51.078;12.108;2023-08-06T04:25:46;2.28;;;0.98;;
35699;SDS011;21818;51.078;12.108;2023-08-06T04:28:11;1.25;;;0.80;;
35699;SDS011;21818;51.078;12.108;2023-08-06T04:30:37;5.25;;;0.90;;
35699;SDS011;21818;51.078;12.108;2023-08-06T04:33:03;0.77;;;0.63;;
35699;SDS011;21818;51.078;12.108;2023-08-06T04:35:29;1.38;;;0.80;;
35699;SDS011;21818;51.078;12.108;2023-08-06T04:37:54;1.55;;;0.90;;
35699;SDS011;21818;51.078;12.108;2023-08-06T04:40:20;1.85;;;0.80;;
35699;SDS011;21818;51.078;12.108;2023-08-06T04:42:45;1.10;;;0.70;;
35699;SDS011;21818;51.078;12.108;2023-08-06T04:45:11;1.73;;;0.60;;
35699;SDS011;21818;51.078;12.108;2023-08-06T04:47:36;1.00;;;0.57;;
35699;SDS011;21818;51.078;12.108;2023-08-06T04:50:02;1.23;;;0.93;;
35699;SDS011;21818;51.078;12.108;2023-08-06T04:52:28;1.13;;;0.70;;
35699;SDS011;21818;51.078;12.108;2023-08-06T04:54:54;1.30;;;0.57;;
35699;SDS011;21818;51.078;12.108;2023-08-06T04:57:20;2.90;;;0.75;;
35699;SDS011;21818;51.078;12.108;2023-08-06T04:59:46;1.50;;;1.10;;
35699;SDS011;21818;51.078;12.108;2023-08-06T05:02:11;8.88;;;2.30;;
35699;SDS011;21818;51.078;12.108;2023-08-06T05:04:37;8.38;;;2.28;;
35699;SDS011;21818;51.078;12.108;2023-08-06T05:07:03;5.07;;;1.48;;
35699;SDS011;21818;51.078;12.108;2023-08-06T05:09:30;5.60;;;2.25;;
35699;SDS011;21818;51.078;12.108;2023-08-06T05:11:55;8.85;;;2.20;;
35699;SDS011;21818;51.078;12.108;2023-08-06T05:14:21;10.18;;;1.88;;
35699;SDS011;21818;51.078;12.108;2023-08-06T05:16:46;8.20;;;1.77;;
35699;SDS011;21818;51.078;12.108;2023-08-06T05:19:12;4.90;;;1.17;;
35699;SDS011;21818;51.078;12.108;2023-08-06T05:21:38;3.85;;;1.30;;
35699;SDS011;21818;51.078;12.108;2023-08-06T05:24:03;3.33;;;1.00;;
35699;SDS011;21818;51.078;12.108;2023-08-06T05:26:29;5.07;;;0.75;;
35699;SDS011;21818;51.078;12.108;2023-08-06T05:28:54;2.85;;;0.95;;
35699;SDS011;21818;51.078;12.108;2023-08-06T05:31:20;1.88;;;0.90;;
35699;SDS011;21818;51.078;12.108;2023-08-06T05:33:46;4.13;;;1.10;;
35699;SDS011;21818;51.078;12.108;2023-08-06T05:36:11;1.75;;;0.90;;
35699;SDS011;21818;51.078;12.108;2023-08-06T05:38:37;1.80;;;1.00;;
35699;SDS011;21818;51.078;12.108;2023-08-06T05:41:02;28.38;;;1.25;;
35699;SDS011;21818;51.078;12.108;2023-08-06T05:43:28;6.70;;;0.90;;
35699;SDS011;21818;51.078;12.108;2023-08-06T05:45:54;0.90;;;0.80;;
35699;SDS011;21818;51.078;12.108;2023-08-06T05:48:20;2.45;;;0.80;;
35699;SDS011;21818;51.078;12.108;2023-08-06T05:50:47;5.60;;;1.33;;
35699;SDS011;21818;51.078;12.108;2023-08-06T05:53:13;3.30;;;0.88;;
35699;SDS011;21818;51.078;12.108;2023-08-06T05:55:38;2.90;;;0.90;;
35699;SDS011;21818;51.078;12.108;2023-08-06T05:58:04;1.13;;;0.60;;
35699;SDS011;21818;51.078;12.108;2023-08-06T06:00:30;2.20;;;0.80;;
35699;SDS011;21818;51.078;12.108;2023-08-06T06:02:55;1.50;;;0.93;;
35699;SDS011;21818;51.078;12.108;2023-08-06T06:05:21;1.63;;;0.80;;
35699;SDS011;21818;51.078;12.108;2023-08-06T06:07:46;1.00;;;0.70;;
35699;SDS011;21818;51.078;12.108;2023-08-06T06:10:12;1.60;;;0.65;;
35699;SDS011;21818;51.078;12.108;2023-08-06T06:12:38;1.13;;;0.90;;
35699;SDS011;21818;51.078;12.108;2023-08-06T06:15:04;0.95;;;0.57;;
35699;SDS011;21818;51.078;12.108;2023-08-06T06:17:30;0.68;;;0.60;;
35699;SDS011;21818;51.078;12.108;2023-08-06T06:19:56;2.13;;;0.80;;
35699;SDS011;21818;51.078;12.108;2023-08-06T06:22:21;0.93;;;0.77;;
35699;SDS011;21818;51.078;12.108;2023-08-06T06:24:47;2.05;;;0.88;;
35699;SDS011;21818;51.078;12.108;2023-08-06T06:27:12;1.25;;;0.80;;
35699;SDS011;21818;51.078;12.108;2023-08-06T06:29:38;3.55;;;0.75;;
35699;SDS011;21818;51.078;12.108;2023-08-06T06:32:04;1.42;;;0.93;;
35699;SDS011;21818;51.078;12.108;2023-08-06T06:34:30;1.48;;;0.90;;
35699;SDS011;21818;51.078;12.108;2023-08-06T06:36:55;1.52;;;0.80;;
35699;SDS011;21818;51.078;12.108;2023-08-06T06:39:21;0.90;;;0.63;;
35699;SDS011;21818;51.078;12.108;2023-08-06T06:41:47;0.80;;;0.65;;
35699;SDS011;21818;51.078;12.108;2023-08-06T06:44:13;2.55;;;0.80;;
35699;SDS011;21818;51.078;12.108;2023-08-06T06:46:38;1.60;;;0.90;;
35699;SDS011;21818;51.078;12.108;2023-08-06T06:49:04;1.42;;;0.65;;
35699;SDS011;21818;51.078;12.108;2023-08-06T06:51:29;2.15;;;0.93;;
35699;SDS011;21818;51.078;12.108;2023-08-06T06:53:56;2.00;;;0.90;;
35699;SDS011;21818;51.078;12.108;2023-08-06T06:56:22;0.93;;;0.77;;
35699;SDS011;21818;51.078;12.108;2023-08-06T06:58:48;1.00;;;0.60;;
35699;SDS011;21818;51.078;12.108;2023-08-06T07:01:14;1.10;;;0.77;;
35699;SDS011;21818;51.078;12.108;2023-08-06T07:03:40;2.78;;;1.20;;
35699;SDS011;21818;51.078;12.108;2023-08-06T07:06:06;4.30;;;1.27;;
35699;SDS011;21818;51.078;12.108;2023-08-06T07:08:32;1.83;;;1.10;;
35699;SDS011;21818;51.078;12.108;2023-08-06T07:11:04;1.25;;;0.88;;
35699;SDS011;21818;51.078;12.108;2023-08-06T07:13:31;0.98;;;0.70;;
35699;SDS011;21818;51.078;12.108;2023-08-06T07:15:57;4.43;;;0.93;;
35699;SDS011;21818;51.078;12.108;2023-08-06T07:18:23;1.10;;;0.80;;
35699;SDS011;21818;51.078;12.108;2023-08-06T07:20:53;1.00;;;0.77;;
35699;SDS011;21818;51.078;12.108;2023-08-06T07:23:20;1.65;;;0.70;;
35699;SDS011;21818;51.078;12.108;2023-08-06T07:25:50;1.40;;;0.77;;
35699;SDS011;21818;51.078;12.108;2023-08-06T07:28:15;2.60;;;1.08;;
35699;SDS011;21818;51.078;12.108;2023-08-06T07:30:42;2.45;;;1.13;;
35699;SDS011;21818;51.078;12.108;2023-08-06T07:33:09;2.75;;;1.10;;
35699;SDS011;21818;51.078;12.108;2023-08-06T07:35:35;2.20;;;0.85;;
35699;SDS011;21818;51.078;12.108;2023-08-06T07:38:00;1.70;;;0.70;;
35699;SDS011;21818;51.078;12.108;2023-08-06T07:40:26;3.17;;;0.70;;
35699;SDS011;21818;51.078;12.108;2023-08-06T07:42:52;3.67;;;0.80;;
35699;SDS011;21818;51.078;12.108;2023-08-06T07:45:18;4.05;;;0.98;;
35699;SDS011;21818;51.078;12.108;2023-08-06T07:47:44;0.88;;;0.80;;
35699;SDS011;21818;51.078;12.108;2023-08-06T07:50:09;1.15;;;0.63;;
35699;SDS011;21818;51.078;12.108;2023-08-06T07:52:35;1.85;;;0.80;;
35699;SDS011;21818;51.078;12.108;2023-08-06T07:55:01;1.88;;;0.85;;
35699;SDS011;21818;51.078;12.108;2023-08-06T07:57:29;1.65;;;0.77;;
35699;SDS011;21818;51.078;12.108;2023-08-06T07:59:55;2.05;;;0.68;;
35699;SDS011;21818;51.078;12.108;2023-08-06T08:02:21;4.10;;;1.10;;
35699;SDS011;21818;51.078;12.108;2023-08-06T08:04:47;2.05;;;0.93;;
35699;SDS011;21818;51.078;12.108;2023-08-06T08:07:13;2.00;;;0.65;;
35699;SDS011;21818;51.078;12.108;2023-08-06T08:09:38;1.95;;;0.93;;
35699;SDS011;21818;51.078;12.108;2023-08-06T08:12:04;2.53;;;0.80;;
35699;SDS011;21818;51.078;12.108;2023-08-06T08:14:30;1.30;;;0.75;;
35699;SDS011;21818;51.078;12.108;2023-08-06T08:17:00;1.33;;;0.85;;
35699;SDS011;21818;51.078;12.108;2023-08-06T08:19:29;1.67;;;1.17;;
35699;SDS011;21818;51.078;12.108;2023-08-06T08:21:55;1.50;;;1.08;;
35699;SDS011;21818;51.078;12.108;2023-08-06T08:24:21;1.30;;;0.85;;
35699;SDS011;21818;51.078;12.108;2023-08-06T08:26:49;1.45;;;0.90;;
35699;SDS011;21818;51.078;12.108;2023-08-06T08:29:15;1.02;;;0.70;;
35699;SDS011;21818;51.078;12.108;2023-08-06T08:31:41;2.53;;;1.20;;
35699;SDS011;21818;51.078;12.108;2023-08-06T08:34:06;1.50;;;0.85;;
35699;SDS011;21818;51.078;12.108;2023-08-06T08:36:32;1.75;;;1.08;;
35699;SDS011;21818;51.078;12.108;2023-08-06T08:38:58;2.33;;;0.70;;
35699;SDS011;21818;51.078;12.108;2023-08-06T08:41:23;3.95;;;1.05;;
35699;SDS011;21818;51.078;12.108;2023-08-06T08:43:50;2.80;;;1.10;;
35699;SDS011;21818;51.078;12.108;2023-08-06T08:46:19;1.92;;;0.90;;
35699;SDS011;21818;51.078;12.108;2023-08-06T08:48:45;3.00;;;1.10;;
35699;SDS011;21818;51.078;12.108;2023-08-06T08:51:11;1.10;;;0.65;;
35699;SDS011;21818;51.078;12.108;2023-08-06T08:53:38;2.20;;;0.90;;
35699;SDS011;21818;51.078;12.108;2023-08-06T08:56:04;3.60;;;1.08;;
35699;SDS011;21818;51.078;12.108;2023-08-06T08:58:30;1.40;;;0.80;;
35699;SDS011;21818;51.078;12.108;2023-08-06T09:00:57;1.35;;;1.00;;
35699;SDS011;21818;51.078;12.108;2023-08-06T09:03:23;1.58;;;1.00;;
35699;SDS011;21818;51.078;12.108;2023-08-06T09:05:50;1.05;;;0.77;;
35699;SDS011;21818;51.078;12.108;2023-08-06T09:08:18;4.10;;;1.42;;
35699;SDS011;21818;51.078;12.108;2023-08-06T09:10:49;2.10;;;0.88;;
35699;SDS011;21818;51.078;12.108;2023-08-06T09:13:17;1.23;;;0.90;;
35699;SDS011;21818;51.078;12.108;2023-08-06T09:15:43;2.58;;;1.17;;
35699;SDS011;21818;51.078;12.108;2023-08-06T09:18:12;2.65;;;0.85;;
35699;SDS011;21818;51.078;12.108;2023-08-06T09:20:38;1.63;;;0.90;;
35699;SDS011;21818;51.078;12.108;2023-08-06T09:23:08;1.40;;;1.08;;
35699;SDS011;21818;51.078;12.108;2023-08-06T09:25:36;1.63;;;1.10;;
35699;SDS011;21818;51.078;12.108;2023-08-06T09:28:07;2.05;;;1.15;;
35699;SDS011;21818;51.078;12.108;2023-08-06T09:30:34;1.40;;;1.20;;
35699;SDS011;21818;51.078;12.108;2023-08-06T09:33:03;2.35;;;1.20;;
35699;SDS011;21818;51.078;12.108;2023-08-06T09:35:35;1.40;;;1.10;;
35699;SDS011;21818;51.078;12.108;2023-08-06T09:38:07;2.72;;;1.17;;
35699;SDS011;21818;51.078;12.108;2023-08-06T09:40:35;4.40;;;1.10;;
35699;SDS011;21818;51.078;12.108;2023-08-06T09:43:01;1.73;;;0.93;;
35699;SDS011;21818;51.078;12.108;2023-08-06T09:45:31;2.15;;;1.10;;
35699;SDS011;21818;51.078;12.108;2023-08-06T09:48:04;1.38;;;0.90;;
35699;SDS011;21818;51.078;12.108;2023-08-06T09:50:31;1.58;;;1.02;;
35699;SDS011;21818;51.078;12.108;2023-08-06T09:52:59;1.65;;;0.88;;
35699;SDS011;21818;51.078;12.108;2023-08-06T09:55:25;1.10;;;0.68;;
35699;SDS011;21818;51.078;12.108;2023-08-06T09:57:51;1.67;;;0.90;;
35699;SDS011;21818;51.078;12.108;2023-08-06T10:00:18;1.25;;;0.98;;
35699;SDS011;21818;51.078;12.108;2023-08-06T10:02:45;1.20;;;0.93;;
35699;SDS011;21818;51.078;12.108;2023-08-06T10:05:11;1.75;;;1.08;;
35699;SDS011;21818;51.078;12.108;2023-08-06T10:07:37;1.52;;;1.23;;
35699;SDS011;21818;51.078;12.108;2023-08-06T10:10:06;1.70;;;0.88;;
35699;SDS011;21818;51.078;12.108;2023-08-06T10:12:42;2.92;;;0.95;;
35699;SDS011;21818;51.078;12.108;2023-08-06T10:15:12;1.15;;;0.80;;
35699;SDS011;21818;51.078;12.108;2023-08-06T10:17:41;1.50;;;0.90;;
35699;SDS011;21818;51.078;12.108;2023-08-06T10:20:08;1.92;;;1.08;;
35699;SDS011;21818;51.078;12.108;2023-08-06T10:22:34;3.60;;;0.88;;
35699;SDS011;21818;51.078;12.108;2023-08-06T10:25:01;2.30;;;1.17;;
35699;SDS011;21818;51.078;12.108;2023-08-06T10:32:50;1.27;;;1.00;;
35699;SDS011;21818;51.078;12.108;2023-08-06T10:35:30;2.05;;;1.20;;
35699;SDS011;21818;51.078;12.108;2023-08-06T10:38:09;3.33;;;1.30;;
35699;SDS011;21818;51.078;12.108;2023-08-06T10:40:37;1.73;;;1.13;;
35699;SDS011;21818;51.078;12.108;2023-08-06T10:43:05;1.75;;;0.93;;
35699;SDS011;21818;51.078;12.108;2023-08-06T10:45:36;2.47;;;0.95;;
35699;SDS011;21818;51.078;12.108;2023-08-06T10:48:03;2.33;;;1.10;;
35699;SDS011;21818;51.078;12.108;2023-08-06T10:50:29;1.50;;;0.88;;
35699;SDS011;21818;51.078;12.108;2023-08-06T10:52:56;1.48;;;0.70;;
35699;SDS011;21818;51.078;12.108;2023-08-06T10:55:26;2.17;;;0.90;;
35699;SDS011;21818;51.078;12.108;2023-08-06T10:57:54;1.10;;;0.77;;
35699;SDS011;21818;51.078;12.108;2023-08-06T11:00:23;2.85;;;1.02;;
35699;SDS011;21818;51.078;12.108;2023-08-06T11:02:49;1.35;;;1.00;;
35699;SDS011;21818;51.078;12.108;2023-08-06T11:05:16;2.45;;;0.90;;
35699;SDS011;21818;51.078;12.108;2023-08-06T11:07:42;3.05;;;1.23;;
35699;SDS011;21818;51.078;12.108;2023-08-06T11:10:09;1.25;;;0.80;;
35699;SDS011;21818;51.078;12.108;2023-08-06T11:12:36;2.75;;;1.10;;
35699;SDS011;21818;51.078;12.108;2023-08-06T11:15:02;1.33;;;0.70;;
35699;SDS011;21818;51.078;12.108;2023-08-06T11:17:29;2.35;;;0.98;;
35699;SDS011;21818;51.078;12.108;2023-08-06T11:19:56;1.05;;;0.70;;
35699;SDS011;21818;51.078;12.108;2023-08-06T11:22:24;1.55;;;0.70;;
35699;SDS011;21818;51.078;12.108;2023-08-06T11:24:50;1.45;;;0.82;;
35699;SDS011;21818;51.078;12.108;2023-08-06T11:27:16;1.25;;;0.70;;
35699;SDS011;21818;51.078;12.108;2023-08-06T11:29:42;1.55;;;1.15;;
35699;SDS011;21818;51.078;12.108;2023-08-06T11:32:09;2.15;;;0.93;;
35699;SDS011;21818;51.078;12.108;2023-08-06T11:34:35;2.15;;;1.08;;
35699;SDS011;21818;51.078;12.108;2023-08-06T11:37:05;2.53;;;1.00;;
35699;SDS011;21818;51.078;12.108;2023-08-06T11:39:34;2.60;;;1.10;;
35699;SDS011;21818;51.078;12.108;2023-08-06T11:42:04;1.10;;;0.60;;
35699;SDS011;21818;51.078;12.108;2023-08-06T11:44:36;1.88;;;0.70;;
35699;SDS011;21818;51.078;12.108;2023-08-06T11:47:03;2.85;;;0.95;;
35699;SDS011;21818;51.078;12.108;2023-08-06T11:49:37;2.13;;;0.90;;
35699;SDS011;21818;51.078;12.108;2023-08-06T11:52:07;1.52;;;1.02;;
35699;SDS011;21818;51.078;12.108;2023-08-06T11:54:38;1.30;;;0.90;;
35699;SDS011;21818;51.078;12.108;2023-08-06T11:57:07;1.17;;;0.90;;
35699;SDS011;21818;51.078;12.108;2023-08-06T11:59:33;1.42;;;0.90;;
35699;SDS011;21818;51.078;12.108;2023-08-06T12:02:07;1.23;;;0.68;;
35699;SDS011;21818;51.078;12.108;2023-08-06T12:07:40;0.80;;;0.77;;
35699;SDS011;21818;51.078;12.108;2023-08-06T12:10:08;1.48;;;0.80;;
35699;SDS011;21818;51.078;12.108;2023-08-06T12:12:34;1.92;;;0.80;;
35699;SDS011;21818;51.078;12.108;2023-08-06T12:15:00;2.58;;;0.98;;
35699;SDS011;21818;51.078;12.108;2023-08-06T12:17:26;1.48;;;0.95;;
35699;SDS011;21818;51.078;12.108;2023-08-06T12:19:52;1.65;;;0.90;;
35699;SDS011;21818;51.078;12.108;2023-08-06T12:22:17;1.40;;;0.88;;
35699;SDS011;21818;51.078;12.108;2023-08-06T12:24:44;0.90;;;0.70;;
35699;SDS011;21818;51.078;12.108;2023-08-06T12:27:11;1.02;;;0.80;;
35699;SDS011;21818;51.078;12.108;2023-08-06T12:29:43;2.50;;;0.70;;
35699;SDS011;21818;51.078;12.108;2023-08-06T12:32:10;1.15;;;0.60;;
35699;SDS011;21818;51.078;12.108;2023-08-06T12:34:37;0.90;;;0.68;;
35699;SDS011;21818;51.078;12.108;2023-08-06T12:37:07;1.63;;;0.85;;
35699;SDS011;21818;51.078;12.108;2023-08-06T12:39:33;1.70;;;1.05;;
35699;SDS011;21818;51.078;12.108;2023-08-06T12:42:00;0.90;;;0.60;;
35699;SDS011;21818;51.078;12.108;2023-08-06T12:44:27;4.97;;;0.90;;
35699;SDS011;21818;51.078;12.108;2023-08-06T12:46:53;1.63;;;0.65;;
35699;SDS011;21818;51.078;12.108;2023-08-06T12:49:19;1.77;;;0.73;;
35699;SDS011;21818;51.078;12.108;2023-08-06T12:51:49;2.40;;;0.90;;
35699;SDS011;21818;51.078;12.108;2023-08-06T12:54:19;1.88;;;0.90;;
35699;SDS011;21818;51.078;12.108;2023-08-06T12:56:46;0.93;;;0.70;;
35699;SDS011;21818;51.078;12.108;2023-08-06T12:59:13;0.60;;;0.60;;
35699;SDS011;21818;51.078;12.108;2023-08-06T13:01:40;1.33;;;0.60;;
35699;SDS011;21818;51.078;12.108;2023-08-06T13:04:06;1.88;;;0.77;;
35699;SDS011;21818;51.078;12.108;2023-08-06T13:06:31;1.67;;;0.63;;
35699;SDS011;21818;51.078;12.108;2023-08-06T13:09:10;1.27;;;0.63;;
35699;SDS011;21818;51.078;12.108;2023-08-06T13:11:37;1.00;;;0.50;;
35699;SDS011;21818;51.078;12.108;2023-08-06T13:14:07;1.05;;;0.60;;
35699;SDS011;21818;51.078;12.108;2023-08-06T13:16:37;1.75;;;0.80;;
35699;SDS011;21818;51.078;12.108;2023-08-06T13:19:06;1.27;;;0.90;;
35699;SDS011;21818;51.078;12.108;2023-08-06T13:24:27;1.10;;;0.70;;
35699;SDS011;21818;51.078;12.108;2023-08-06T13:26:52;1.95;;;0.90;;
35699;SDS011;21818;51.078;12.108;2023-08-06T13:29:18;1.00;;;0.77;;
35699;SDS011;21818;51.078;12.108;2023-08-06T13:31:44;1.30;;;0.63;;
35699;SDS011;21818;51.078;12.108;2023-08-06T13:34:09;1.67;;;0.80;;
35699;SDS011;21818;51.078;12.108;2023-08-06T13:36:35;1.17;;;0.70;;
35699;SDS011;21818;51.078;12.108;2023-08-06T13:39:00;1.23;;;0.95;;
35699;SDS011;21818;51.078;12.108;2023-08-06T13:41:26;1.33;;;0.80;;
35699;SDS011;21818;51.078;12.108;2023-08-06T13:43:51;1.42;;;0.70;;
35699;SDS011;21818;51.078;12.108;2023-08-06T13:46:18;2.38;;;0.85;;
35699;SDS011;21818;51.078;12.108;2023-08-06T13:48:45;0.77;;;0.55;;
35699;SDS011;21818;51.078;12.108;2023-08-06T13:51:11;1.30;;;0.63;;
35699;SDS011;21818;51.078;12.108;2023-08-06T13:53:38;1.13;;;0.60;;
35699;SDS011;21818;51.078;12.108;2023-08-06T13:56:04;1.10;;;0.70;;
35699;SDS011;21818;51.078;12.108;2023-08-06T13:58:31;2.03;;;0.60;;
35699;SDS011;21818;51.078;12.108;2023-08-06T14:00:57;1.60;;;0.82;;
35699;SDS011;21818;51.078;12.108;2023-08-06T14:03:23;1.20;;;0.60;;
35699;SDS011;21818;51.078;12.108;2023-08-06T14:05:48;0.98;;;0.60;;
35699;SDS011;21818;51.078;12.108;2023-08-06T14:08:15;2.88;;;0.80;;
35699;SDS011;21818;51.078;12.108;2023-08-06T14:10:43;1.92;;;1.02;;
35699;SDS011;21818;51.078;12.108;2023-08-06T14:13:09;2.25;;;0.70;;
35699;SDS011;21818;51.078;12.108;2023-08-06T14:15:35;1.38;;;0.65;;
35699;SDS011;21818;51.078;12.108;2023-08-06T14:18:01;1.40;;;0.85;;
35699;SDS011;21818;51.078;12.108;2023-08-06T14:20:27;2.97;;;0.73;;
35699;SDS011;21818;51.078;12.108;2023-08-06T14:22:53;2.25;;;0.70;;
35699;SDS011;21818;51.078;12.108;2023-08-06T14:25:18;1.63;;;0.80;;
35699;SDS011;21818;51.078;12.108;2023-08-06T14:27:44;1.30;;;0.70;;
35699;SDS011;21818;51.078;12.108;2023-08-06T14:30:10;2.42;;;0.80;;
35699;SDS011;21818;51.078;12.108;2023-08-06T14:32:37;2.75;;;0.85;;
35699;SDS011;21818;51.078;12.108;2023-08-06T14:35:03;2.38;;;1.08;;
35699;SDS011;21818;51.078;12.108;2023-08-06T14:37:29;3.28;;;1.25;;
35699;SDS011;21818;51.078;12.108;2023-08-06T14:39:54;2.50;;;0.77;;
35699;SDS011;21818;51.078;12.108;2023-08-06T14:42:20;2.65;;;0.98;;
35699;SDS011;21818;51.078;12.108;2023-08-06T14:44:46;1.42;;;0.73;;
35699;SDS011;21818;51.078;12.108;2023-08-06T14:47:11;3.10;;;1.00;;
35699;SDS011;21818;51.078;12.108;2023-08-06T14:49:37;1.58;;;0.85;;